Date,TemperatureHighF,TemperatureAvgF,TemperatureLowF,DewpointHighF,DewpointAvgF,DewpointLowF,HumidityHigh,HumidityAvg,HumidityLow,PressureMaxIn,PressureMinIn,WindSpeedMaxMPH,WindSpeedAvgMPH,GustSpeedMaxMPH,PrecipitationSumIn
2013-1-1,37,27,19,24,18,11,100,71,47,0.00,40.00,10,4,23,0.00
2013-1-2,39,32,27,13,8,4,50,36,24,0.00,40.00,11,8,23,0.00
2013-1-3,42,36,31,13,6,-1,36,29,23,0.00,40.00,9,7,19,0.00
2013-1-4,53,36,23,15,3,-5,42,26,9,0.00,40.00,8,3,20,0.00
2013-1-5,61,37,24,10,-1,-15,31,20,10,0.00,40.00,2,0,10,0.00
2013-1-6,37,32,29,35,23,-1,100,75,23,0.00,40.00,8,5,26,0.00
2013-1-7,41,34,27,30,23,11,100,68,31,0.00,40.00,9,5,26,0.00
2013-1-8,56,46,38,26,18,4,54,32,21,0.00,40.00,7,4,16,0.00
2013-1-9,60,48,40,34,26,21,61,41,33,0.00,40.00,7,2,15,0.00
2013-1-10,40,30,22,34,27,22,100,92,50,0.00,40.00,11,8,41,0.00
2013-1-11,32,23,16,22,19,15,100,85,50,0.00,40.00,8,3,27,0.00
2013-1-12,32,22,12,23,15,10,100,77,39,0.00,40.00,6,2,19,0.00
2013-1-13,35,24,12,23,14,9,98,71,37,0.00,40.00,6,1,14,0.00
2013-1-14,32,21,9,11,-1,-10,77,41,22,0.00,40.00,10,4,22,0.00
2013-1-15,34,29,19,13,6,-8,45,38,29,0.00,40.00,12,9,29,0.00
2013-1-16,43,37,32,20,16,13,49,42,36,0.00,40.00,13,10,27,0.00
2013-1-17,46,40,37,17,13,10,37,32,28,0.00,40.00,12,9,24,0.00
2013-1-18,51,43,38,20,14,12,35,31,26,0.00,40.00,10,7,20,0.00
2013-1-19,52,43,35,17,11,6,32,27,23,0.00,40.00,11,7,22,0.00
2013-1-20,53,42,32,13,7,-3,38,24,14,0.00,40.00,7,4,15,0.00
2013-1-21,56,46,38,9,1,-3,18,15,12,0.00,40.00,9,6,18,0.00
2013-1-22,65,50,38,26,9,-3,48,21,10,0.00,40.00,8,3,14,0.00
2013-1-23,60,51,39,35,28,23,65,42,30,0.00,40.00,6,2,24,0.00
2013-1-24,55,47,42,54,44,32,100,91,57,0.00,40.00,6,2,15,0.00
2013-1-25,47,45,41,47,45,41,100,100,100,0.00,40.00,3,0,11,0.00
2013-1-26,47,43,40,47,43,40,100,100,100,0.00,40.00,5,1,13,0.00
2013-1-27,43,36,27,42,35,27,100,98,84,0.00,40.00,10,5,34,0.00
2013-1-28,37,28,21,31,27,21,100,93,72,0.00,40.00,6,1,20,0.00
2013-1-29,52,36,23,36,26,21,100,72,44,0.00,40.00,7,1,17,0.00
2013-1-30,51,42,34,29,26,23,67,53,39,0.00,40.00,9,6,21,0.00
2013-1-31,50,45,38,31,27,23,62,50,43,0.00,40.00,8,6,20,0.00
2013-2-1,61,46,32,33,23,13,61,42,25,0.00,40.00,5,1,11,0.00
2013-2-2,59,48,40,32,24,14,65,40,28,0.00,40.00,4,1,11,0.00
2013-2-3,59,46,35,42,38,32,100,77,50,0.00,40.00,4,1,11,0.00
2013-2-4,57,43,32,35,30,26,86,61,36,0.00,40.00,4,2,13,0.00
2013-2-5,62,43,30,34,27,21,88,56,31,0.00,40.00,3,1,11,0.00